Time;durP1;ratioP1;P1;durP2;ratioP2;P2;SDS_P1;SDS_P2;PMS_P1;PMS_P2;Temp;Humidity;BMP_temperature;BMP_pressure;BME280_temperature;BME280_humidity;BME280_pressure;Samples;Min_cycle;Max_cycle;Signal;HPM_P1;HPM_P2
2022/07/23 00:00:20;;;;;;;15.15;5.50;;;;;;;;;;10358244;28;20044;-75
2022/07/23 00:05:20;;;;;;;7.85;4.80;;;;;;;;;;10358286;28;20042;-75
2022/07/23 00:10:20;;;;;;;9.77;4.70;;;;;;;;;;10357414;28;20041;-73
2022/07/23 00:15:21;;;;;;;11.10;5.43;;;;;;;;;;10356988;28;20588;-73
2022/07/23 00:20:21;;;;;;;9.23;4.43;;;;;;;;;;10374515;28;20045;-75
2022/07/23 00:25:22;;;;;;;9.83;5.37;;;;;;;;;;10374716;28;20467;-75
2022/07/23 00:30:23;;;;;;;9.60;5.55;;;;;;;;;;10357126;28;20044;-75
2022/07/23 00:35:24;;;;;;;21.58;6.35;;;;;;;;;;10357104;28;20037;-76
2022/07/23 00:40:25;;;;;;;8.00;5.65;;;;;;;;;;10356500;28;20543;-75
2022/07/23 00:45:25;;;;;;;8.00;5.60;;;;;;;;;;10373868;28;20087;-75
2022/07/23 00:50:25;;;;;;;11.63;5.33;;;;;;;;;;10355435;28;20040;-75
2022/07/23 00:55:26;;;;;;;8.13;5.60;;;;;;;;;;10356585;28;20029;-74
2022/07/23 01:00:26;;;;;;;9.55;5.97;;;;;;;;;;10355783;28;20045;-74
2022/07/23 01:05:26;;;;;;;10.63;5.35;;;;;;;;;;10373094;28;20091;-75
2022/07/23 01:10:33;;;;;;;11.60;5.70;;;;;;;;;;10355427;28;20041;-75
2022/07/23 01:15:33;;;;;;;10.15;4.97;;;;;;;;;;10355129;28;20045;-75
2022/07/23 01:20:34;;;;;;;9.32;5.90;;;;;;;;;;10355189;28;20029;-75
2022/07/23 01:25:34;;;;;;;12.52;5.93;;;;;;;;;;10354814;28;20038;-75
2022/07/23 01:30:35;;;;;;;8.90;5.50;;;;;;;;;;10355711;28;20416;-76
2022/07/23 01:35:35;;;;;;;8.83;5.63;;;;;;;;;;10354133;28;20034;-75
2022/07/23 01:40:35;;;;;;;8.10;5.63;;;;;;;;;;10371992;28;20152;-75
2022/07/23 01:45:38;;;;;;;8.80;5.32;;;;;;;;;;10371467;28;20049;-75
2022/07/23 01:50:38;;;;;;;10.82;5.82;;;;;;;;;;10353991;28;20065;-75
2022/07/23 01:55:39;;;;;;;6.80;5.37;;;;;;;;;;10353927;28;20096;-75
2022/07/23 02:00:39;;;;;;;6.50;5.30;;;;;;;;;;10337574;28;20484;-74
2022/07/23 02:05:39;;;;;;;11.00;5.32;;;;;;;;;;10353750;28;20483;-75
2022/07/23 02:10:40;;;;;;;9.00;5.63;;;;;;;;;;10371006;28;20507;-75
2022/07/23 02:15:40;;;;;;;15.77;5.70;;;;;;;;;;10353364;28;20041;-75
2022/07/23 02:20:41;;;;;;;10.50;5.80;;;;;;;;;;10353126;28;20044;-75
2022/07/23 02:25:41;;;;;;;10.65;5.25;;;;;;;;;;10353191;28;20040;-75
2022/07/23 02:30:41;;;;;;;10.55;5.70;;;;;;;;;;10353133;28;20065;-75
2022/07/23 02:35:42;;;;;;;9.77;6.03;;;;;;;;;;10352769;28;20037;-75
2022/07/23 02:40:42;;;;;;;11.18;6.15;;;;;;;;;;10352830;28;20045;-75
2022/07/23 02:45:42;;;;;;;14.07;6.15;;;;;;;;;;10352420;28;20030;-75
2022/07/23 02:50:42;;;;;;;8.38;4.57;;;;;;;;;;10352373;28;20125;-75
2022/07/23 02:55:43;;;;;;;12.50;5.70;;;;;;;;;;10352655;28;20033;-75
2022/07/23 03:00:43;;;;;;;22.17;5.97;;;;;;;;;;10352824;28;20081;-75
2022/07/23 03:05:43;;;;;;;11.15;5.95;;;;;;;;;;10352212;28;20145;-75
2022/07/23 03:10:43;;;;;;;11.63;5.80;;;;;;;;;;10354933;28;20021;-75
2022/07/23 03:15:44;;;;;;;8.10;5.47;;;;;;;;;;10360559;28;20041;-75
2022/07/23 03:20:44;;;;;;;9.82;5.85;;;;;;;;;;10359639;28;20041;-74
2022/07/23 03:25:46;;;;;;;9.60;5.45;;;;;;;;;;10359606;28;20408;-75
2022/07/23 03:30:46;;;;;;;11.65;7.47;;;;;;;;;;10359294;28;20120;-75
2022/07/23 03:35:47;;;;;;;12.25;6.40;;;;;;;;;;10376895;28;20068;-74
2022/07/23 03:40:47;;;;;;;10.38;6.35;;;;;;;;;;10358989;28;20530;-75
2022/07/23 03:45:47;;;;;;;15.27;6.53;;;;;;;;;;10376297;28;20049;-76
2022/07/23 03:50:48;;;;;;;8.32;6.07;;;;;;;;;;10375970;28;20036;-76
2022/07/23 03:55:48;;;;;;;13.27;6.03;;;;;;;;;;10358164;28;20057;-74
2022/07/23 04:00:48;;;;;;;9.32;6.00;;;;;;;;;;10358073;28;20050;-74
2022/07/23 04:05:48;;;;;;;11.93;5.97;;;;;;;;;;10357760;28;20048;-73
2022/07/23 04:10:49;;;;;;;9.77;5.60;;;;;;;;;;10357926;28;20026;-74
2022/07/23 04:15:50;;;;;;;14.25;6.97;;;;;;;;;;10357531;28;20030;-74
2022/07/23 04:20:51;;;;;;;19.23;8.27;;;;;;;;;;10356254;28;20057;-74
2022/07/23 04:25:51;;;;;;;19.17;7.15;;;;;;;;;;10356830;28;20037;-74
2022/07/23 04:30:51;;;;;;;12.45;6.65;;;;;;;;;;10356832;28;20092;-74
2022/07/23 04:35:52;;;;;;;10.32;6.47;;;;;;;;;;10356534;28;20586;-74
2022/07/23 04:40:52;;;;;;;9.68;6.32;;;;;;;;;;10356637;28;20413;-74
2022/07/23 04:45:52;;;;;;;14.52;7.95;;;;;;;;;;10356125;28;20534;-74
2022/07/23 04:50:52;;;;;;;18.52;7.13;;;;;;;;;;10355997;28;20503;-74
2022/07/23 04:55:53;;;;;;;12.43;6.85;;;;;;;;;;10355885;28;20030;-74
2022/07/23 05:00:53;;;;;;;12.37;6.60;;;;;;;;;;10355834;28;20050;-77
2022/07/23 05:05:53;;;;;;;14.23;6.72;;;;;;;;;;10355698;28;20038;-75
2022/07/23 05:10:54;;;;;;;13.30;7.57;;;;;;;;;;10355696;28;20038;-74
2022/07/23 05:15:54;;;;;;;20.73;7.40;;;;;;;;;;10355315;28;20033;-74
2022/07/23 05:20:54;;;;;;;10.93;7.15;;;;;;;;;;10355023;28;20025;-74
2022/07/23 05:25:54;;;;;;;16.17;8.30;;;;;;;;;;10355014;28;20092;-75
2022/07/23 05:30:55;;;;;;;10.87;7.30;;;;;;;;;;10372341;28;20029;-74
2022/07/23 05:35:59;;;;;;;12.65;6.93;;;;;;;;;;10372183;28;20411;-74
2022/07/23 05:41:00;;;;;;;14.35;8.75;;;;;;;;;;10371793;28;20041;-74
2022/07/23 05:46:00;;;;;;;25.60;9.88;;;;;;;;;;10371789;28;20048;-74
2022/07/23 05:51:02;;;;;;;11.38;7.15;;;;;;;;;;10371379;28;20076;-74
2022/07/23 05:56:03;;;;;;;12.57;6.55;;;;;;;;;;10353865;28;20044;-74
2022/07/23 06:01:03;;;;;;;18.23;7.53;;;;;;;;;;10353769;28;20050;-74
2022/07/23 06:06:04;;;;;;;11.95;6.40;;;;;;;;;;10353334;28;20038;-75
2022/07/23 06:11:05;;;;;;;12.07;5.82;;;;;;;;;;10353991;28;20080;-74
2022/07/23 06:16:05;;;;;;;11.20;5.63;;;;;;;;;;10353435;28;20424;-74
2022/07/23 06:21:05;;;;;;;24.42;6.43;;;;;;;;;;10370797;28;20034;-74
2022/07/23 06:26:06;;;;;;;11.05;6.13;;;;;;;;;;10352952;28;20069;-74
2022/07/23 06:31:06;;;;;;;23.25;6.68;;;;;;;;;;10352919;28;20030;-74
2022/07/23 06:36:06;;;;;;;10.03;5.30;;;;;;;;;;10352684;28;20040;-74
2022/07/23 06:41:07;;;;;;;15.17;5.20;;;;;;;;;;10352433;28;20037;-76
2022/07/23 06:46:07;;;;;;;22.80;6.23;;;;;;;;;;10355825;28;20034;-76
2022/07/23 06:51:07;;;;;;;13.23;5.05;;;;;;;;;;10378260;28;20113;-76
2022/07/23 06:56:07;;;;;;;12.75;5.10;;;;;;;;;;10378305;28;20480;-75
2022/07/23 07:01:08;;;;;;;8.13;4.33;;;;;;;;;;10360224;28;20061;-75
2022/07/23 07:06:08;;;;;;;9.47;4.03;;;;;;;;;;10378135;28;20062;-75
2022/07/23 07:11:09;;;;;;;9.80;4.90;;;;;;;;;;10359659;28;20052;-75
2022/07/23 07:16:09;;;;;;;16.20;4.60;;;;;;;;;;10377444;28;20045;-75
2022/07/23 07:21:09;;;;;;;11.52;4.28;;;;;;;;;;10359588;28;20277;-76
2022/07/23 07:26:09;;;;;;;10.23;4.57;;;;;;;;;;10376758;28;20049;-76
2022/07/23 07:31:10;;;;;;;8.45;4.03;;;;;;;;;;10343035;28;20129;-74
2022/07/23 07:36:10;;;;;;;13.50;3.90;;;;;;;;;;10376351;28;20045;-74
2022/07/23 07:41:10;;;;;;;11.27;3.95;;;;;;;;;;10359192;28;20045;-74
2022/07/23 07:46:10;;;;;;;10.30;4.15;;;;;;;;;;10358293;28;20030;-75
2022/07/23 07:51:11;;;;;;;6.90;3.88;;;;;;;;;;10358124;28;20037;-75
2022/07/23 07:56:11;;;;;;;9.13;4.17;;;;;;;;;;10357906;28;20121;-74
2022/07/23 08:01:11;;;;;;;10.60;3.63;;;;;;;;;;10357510;28;20141;-76
2022/07/23 08:06:11;;;;;;;8.55;3.47;;;;;;;;;;10357382;28;20045;-75
2022/07/23 08:11:12;;;;;;;11.05;3.92;;;;;;;;;;10357231;28;20038;-75
2022/07/23 08:16:12;;;;;;;6.45;3.78;;;;;;;;;;10356981;28;20130;-75
2022/07/23 08:21:12;;;;;;;9.45;3.85;;;;;;;;;;10357044;28;20030;-75
2022/07/23 08:26:13;;;;;;;9.98;4.30;;;;;;;;;;10356859;28;20069;-74
2022/07/23 08:31:15;;;;;;;10.43;4.20;;;;;;;;;;10356713;28;20026;-74
2022/07/23 08:36:15;;;;;;;10.82;4.18;;;;;;;;;;10356442;28;20480;-73
2022/07/23 08:41:16;;;;;;;10.73;3.37;;;;;;;;;;10356611;28;20069;-75
2022/07/23 08:46:16;;;;;;;7.90;3.40;;;;;;;;;;10373537;28;20048;-75
2022/07/23 08:51:17;;;;;;;8.32;3.38;;;;;;;;;;10355751;28;20115;-74
2022/07/23 08:56:17;;;;;;;13.00;3.83;;;;;;;;;;10355528;28;20038;-75
2022/07/23 09:01:17;;;;;;;14.45;3.45;;;;;;;;;;10355206;28;20061;-75
2022/07/23 09:06:17;;;;;;;11.00;4.20;;;;;;;;;;10355136;28;20042;-75
2022/07/23 09:11:18;;;;;;;9.88;3.63;;;;;;;;;;10354389;28;20060;-75
2022/07/23 09:16:19;;;;;;;6.83;3.50;;;;;;;;;;10355054;28;20034;-75
2022/07/23 09:21:20;;;;;;;9.50;4.00;;;;;;;;;;10354772;28;20030;-75
2022/07/23 09:26:22;;;;;;;12.90;4.10;;;;;;;;;;10354536;28;20033;-76
2022/07/23 09:31:24;;;;;;;5.13;3.10;;;;;;;;;;10354355;28;20120;-75
2022/07/23 09:36:28;;;;;;;8.10;3.25;;;;;;;;;;10354169;28;20567;-74
2022/07/23 09:41:55;;;;;;;9.23;3.20;;;;;;;;;;10354229;28;20038;-75
2022/07/23 09:46:58;;;;;;;11.45;3.78;;;;;;;;;;10350866;28;20034;-74
2022/07/23 09:52:00;;;;;;;4.57;2.67;;;;;;;;;;10353631;28;20034;-74
2022/07/23 09:57:04;;;;;;;17.33;3.55;;;;;;;;;;10353519;28;20059;-74
2022/07/23 10:02:05;;;;;;;6.22;3.30;;;;;;;;;;10353291;28;20073;-74
2022/07/23 10:07:10;;;;;;;12.10;3.17;;;;;;;;;;10353061;28;20034;-74
2022/07/23 10:17:21;;;;;;;7.93;3.05;;;;;;;;;;10370616;28;20122;-75
2022/07/23 10:22:21;;;;;;;14.73;2.80;;;;;;;;;;10336667;28;20110;-75
2022/07/23 10:27:37;;;;;;;6.85;2.92;;;;;;;;;;10353165;28;20030;-75
2022/07/23 10:32:43;;;;;;;5.00;2.28;;;;;;;;;;10336426;28;20052;-75
2022/07/23 10:37:47;;;;;;;10.15;3.10;;;;;;;;;;10352656;28;20034;-75
2022/07/23 10:42:48;;;;;;;7.88;2.67;;;;;;;;;;10352808;28;20455;-75
2022/07/23 10:47:48;;;;;;;8.30;2.75;;;;;;;;;;10352341;28;20030;-75
2022/07/23 10:53:15;;;;;;;4.87;2.60;;;;;;;;;;10352559;28;20065;-76
2022/07/23 10:58:23;;;;;;;8.95;2.67;;;;;;;;;;10368561;28;20034;-74
2022/07/23 11:03:36;;;;;;;14.82;2.85;;;;;;;;;;10372737;28;20151;-75
2022/07/23 11:08:36;;;;;;;6.47;3.10;;;;;;;;;;10369812;28;20389;-74
2022/07/23 11:13:37;;;;;;;8.88;2.55;;;;;;;;;;10335564;28;20038;-73
2022/07/23 11:18:37;;;;;;;8.77;2.80;;;;;;;;;;10351787;28;20033;-74
2022/07/23 11:23:56;;;;;;;11.07;2.75;;;;;;;;;;10368841;28;20041;-74
2022/07/23 11:29:16;;;;;;;13.48;3.65;;;;;;;;;;10367721;28;20030;-77
2022/07/23 11:34:31;;;;;;;15.90;4.13;;;;;;;;;;10357505;28;20488;-74
2022/07/23 11:39:32;;;;;;;14.10;4.20;;;;;;;;;;10359280;28;20057;-75
2022/07/23 11:44:37;;;;;;;10.80;3.42;;;;;;;;;;10358771;28;20790;-74
2022/07/23 11:49:37;;;;;;;12.25;4.00;;;;;;;;;;10376097;28;20029;-75
2022/07/23 11:54:51;;;;;;;7.60;3.10;;;;;;;;;;10376411;28;20488;-75
2022/07/23 11:59:53;;;;;;;14.93;3.67;;;;;;;;;;10357764;28;20513;-74
2022/07/23 12:04:54;;;;;;;20.90;4.75;;;;;;;;;;10341659;28;20052;-74
2022/07/23 12:09:54;;;;;;;15.18;4.05;;;;;;;;;;10357797;28;20113;-74
2022/07/23 12:14:56;;;;;;;15.93;4.32;;;;;;;;;;10357224;28;20046;-76
2022/07/23 12:19:57;;;;;;;11.25;3.45;;;;;;;;;;10357295;28;20492;-74
2022/07/23 12:24:59;;;;;;;20.02;5.07;;;;;;;;;;10375011;28;20034;-74
2022/07/23 12:30:15;;;;;;;9.05;3.47;;;;;;;;;;10356985;28;20044;-74
2022/07/23 12:35:15;;;;;;;21.55;3.70;;;;;;;;;;10356588;28;20040;-74
2022/07/23 12:40:20;;;;;;;8.00;3.47;;;;;;;;;;10356242;28;20033;-75
2022/07/23 12:45:20;;;;;;;14.13;4.28;;;;;;;;;;10339108;28;20034;-74
2022/07/23 12:50:34;;;;;;;10.07;3.93;;;;;;;;;;10356137;28;20476;-74
2022/07/23 12:55:35;;;;;;;13.35;3.60;;;;;;;;;;10355752;28;20408;-73
2022/07/23 13:00:49;;;;;;;15.35;3.40;;;;;;;;;;10355620;28;20339;-74
2022/07/23 13:05:50;;;;;;;14.10;3.35;;;;;;;;;;10355417;28;20069;-73
2022/07/23 13:10:51;;;;;;;10.33;3.30;;;;;;;;;;10355281;28;20053;-75
2022/07/23 13:15:52;;;;;;;11.07;3.63;;;;;;;;;;10355083;28;20415;-74
2022/07/23 13:20:52;;;;;;;16.55;5.05;;;;;;;;;;10355083;28;20029;-74
2022/07/23 13:25:52;;;;;;;12.07;3.22;;;;;;;;;;10354820;28;20046;-73
2022/07/23 13:30:53;;;;;;;13.53;3.63;;;;;;;;;;10354499;28;20030;-73
2022/07/23 13:35:53;;;;;;;16.37;3.50;;;;;;;;;;10354819;28;20033;-75
2022/07/23 13:40:53;;;;;;;13.20;3.60;;;;;;;;;;10371949;28;20029;-74
2022/07/23 13:45:54;;;;;;;17.40;4.43;;;;;;;;;;10371598;28;20049;-74
2022/07/23 13:50:54;;;;;;;11.00;3.60;;;;;;;;;;10353757;28;20030;-74
2022/07/23 13:55:55;;;;;;;10.00;3.35;;;;;;;;;;10353272;28;20026;-74
2022/07/23 14:00:55;;;;;;;9.20;3.47;;;;;;;;;;10353476;28;20049;-73
2022/07/23 14:05:56;;;;;;;8.17;3.43;;;;;;;;;;10353506;28;20277;-74
2022/07/23 14:10:56;;;;;;;10.07;4.13;;;;;;;;;;10353097;28;20030;-74
2022/07/23 14:15:56;;;;;;;11.18;3.20;;;;;;;;;;10352966;28;20053;-74
2022/07/23 14:20:56;;;;;;;14.68;4.40;;;;;;;;;;10352965;28;20068;-74
2022/07/23 14:25:57;;;;;;;19.77;4.28;;;;;;;;;;10352912;28;20029;-74
2022/07/23 14:30:57;;;;;;;15.17;4.07;;;;;;;;;;10352723;28;20032;-74
2022/07/23 14:35:58;;;;;;;10.63;4.55;;;;;;;;;;10352750;28;20183;-74
2022/07/23 14:40:59;;;;;;;18.05;5.63;;;;;;;;;;10352618;28;20038;-74
2022/07/23 14:45:59;;;;;;;12.53;3.53;;;;;;;;;;10352356;28;20451;-75
2022/07/23 14:51:00;;;;;;;15.48;3.95;;;;;;;;;;10352512;28;20033;-74
2022/07/23 14:56:00;;;;;;;12.10;3.63;;;;;;;;;;10352202;28;20060;-75
2022/07/23 15:01:00;;;;;;;13.38;3.92;;;;;;;;;;10351856;28;20045;-75
2022/07/23 15:06:00;;;;;;;10.43;4.18;;;;;;;;;;10353447;28;20475;-75
2022/07/23 15:11:01;;;;;;;9.40;4.03;;;;;;;;;;10360156;28;20036;-74
2022/07/23 15:16:01;;;;;;;12.57;4.35;;;;;;;;;;10359627;28;20026;-75
2022/07/23 15:21:02;;;;;;;8.47;4.33;;;;;;;;;;10359485;28;20026;-74
2022/07/23 15:26:02;;;;;;;9.77;4.38;;;;;;;;;;10376882;28;20296;-75
2022/07/23 15:31:03;;;;;;;9.27;4.20;;;;;;;;;;10359103;28;20072;-74
2022/07/23 15:36:03;;;;;;;10.73;4.00;;;;;;;;;;10358785;28;20022;-74
2022/07/23 15:41:03;;;;;;;11.23;5.18;;;;;;;;;;10376407;28;20029;-74
2022/07/23 15:46:04;;;;;;;16.67;4.90;;;;;;;;;;10358402;28;20033;-74
2022/07/23 15:51:05;;;;;;;11.05;4.25;;;;;;;;;;10375850;28;20026;-74
2022/07/23 15:56:06;;;;;;;15.40;5.70;;;;;;;;;;10358331;28;20079;-74
2022/07/23 16:01:06;;;;;;;10.80;3.92;;;;;;;;;;10357552;28;20053;-74
2022/07/23 16:06:07;;;;;;;15.63;4.43;;;;;;;;;;10357849;28;20048;-74
2022/07/23 16:11:07;;;;;;;11.93;4.10;;;;;;;;;;10375273;28;20515;-74
2022/07/23 16:16:08;;;;;;;12.38;4.82;;;;;;;;;;10357254;28;20288;-73
2022/07/23 16:21:08;;;;;;;15.35;4.20;;;;;;;;;;10357148;28;20106;-73
2022/07/23 16:26:09;;;;;;;15.02;4.68;;;;;;;;;;10356885;28;20034;-73
2022/07/23 16:31:10;;;;;;;12.98;4.57;;;;;;;;;;10357069;28;20092;-75
2022/07/23 16:36:10;;;;;;;13.85;4.72;;;;;;;;;;10356722;28;20490;-74
2022/07/23 16:41:10;;;;;;;11.80;4.40;;;;;;;;;;10356579;28;20117;-74
2022/07/23 16:46:11;;;;;;;14.57;4.85;;;;;;;;;;10356586;28;20084;-74
2022/07/23 16:51:11;;;;;;;15.97;5.03;;;;;;;;;;10356114;28;20034;-74
2022/07/23 16:56:11;;;;;;;8.35;5.13;;;;;;;;;;10356232;28;20124;-74
2022/07/23 17:01:12;;;;;;;12.05;4.05;;;;;;;;;;10355650;28;20045;-74
2022/07/23 17:06:12;;;;;;;8.63;4.53;;;;;;;;;;10355574;28;20042;-74
2022/07/23 17:11:12;;;;;;;11.15;4.90;;;;;;;;;;10355497;28;20041;-75
2022/07/23 17:16:12;;;;;;;16.52;5.13;;;;;;;;;;10355234;28;20034;-75
2022/07/23 17:21:13;;;;;;;16.95;4.85;;;;;;;;;;10355008;28;20032;-75
2022/07/23 17:26:13;;;;;;;14.32;4.97;;;;;;;;;;10354621;28;20037;-74
2022/07/23 17:31:13;;;;;;;18.43;5.87;;;;;;;;;;10353957;28;20116;-74
2022/07/23 17:36:13;;;;;;;14.37;5.40;;;;;;;;;;10354110;28;20424;-74
2022/07/23 17:41:14;;;;;;;19.17;6.97;;;;;;;;;;10354153;28;20026;-73
2022/07/23 17:46:14;;;;;;;15.25;6.13;;;;;;;;;;10354033;28;20026;-74
2022/07/23 17:51:15;;;;;;;17.90;6.25;;;;;;;;;;10353753;28;20036;-74
2022/07/23 17:56:15;;;;;;;24.67;9.23;;;;;;;;;;10353527;28;20500;-74
2022/07/23 18:01:15;;;;;;;22.20;7.25;;;;;;;;;;10371458;28;20037;-73
2022/07/23 18:06:16;;;;;;;19.70;8.77;;;;;;;;;;10353408;28;20132;-73
2022/07/23 18:11:17;;;;;;;16.63;6.35;;;;;;;;;;10353218;28;20487;-73
2022/07/23 18:16:17;;;;;;;20.23;6.57;;;;;;;;;;10353300;28;20034;-74
2022/07/23 18:21:17;;;;;;;22.83;7.67;;;;;;;;;;10353193;28;20535;-74
2022/07/23 18:26:18;;;;;;;21.25;6.68;;;;;;;;;;10370630;28;20731;-74
2022/07/23 18:31:18;;;;;;;14.70;6.22;;;;;;;;;;10370458;28;20083;-75
2022/07/23 18:36:18;;;;;;;12.95;6.82;;;;;;;;;;10353089;28;20088;-75
2022/07/23 18:41:19;;;;;;;18.10;8.02;;;;;;;;;;10372286;28;20041;-73
2022/07/23 18:46:19;;;;;;;19.73;5.65;;;;;;;;;;10360785;28;20034;-74
2022/07/23 18:51:20;;;;;;;20.88;7.68;;;;;;;;;;10360562;28;20135;-73
2022/07/23 18:56:20;;;;;;;23.60;9.10;;;;;;;;;;10360568;28;20103;-75
2022/07/23 19:01:20;;;;;;;19.98;7.45;;;;;;;;;;10360476;28;20383;-74
2022/07/23 19:06:20;;;;;;;13.00;6.50;;;;;;;;;;10378314;28;20046;-74
2022/07/23 19:11:21;;;;;;;21.00;5.50;;;;;;;;;;10359998;28;20393;-74
2022/07/23 19:16:21;;;;;;;17.73;6.50;;;;;;;;;;10359550;28;20496;-74
2022/07/23 19:21:21;;;;;;;16.90;6.30;;;;;;;;;;10377335;28;20108;-74
2022/07/23 19:26:22;;;;;;;18.58;6.03;;;;;;;;;;10359891;28;20034;-73
2022/07/23 19:31:22;;;;;;;17.38;6.13;;;;;;;;;;10376907;28;20042;-74
2022/07/23 19:36:22;;;;;;;19.77;6.88;;;;;;;;;;10358947;28;20045;-74
2022/07/23 19:41:23;;;;;;;21.77;7.72;;;;;;;;;;10376670;28;20042;-76
2022/07/23 19:46:23;;;;;;;17.00;7.43;;;;;;;;;;10359160;28;20037;-74
2022/07/23 19:51:23;;;;;;;19.77;6.43;;;;;;;;;;10357694;28;20415;-73
2022/07/23 19:56:23;;;;;;;17.83;5.47;;;;;;;;;;10358011;28;20034;-74
2022/07/23 20:01:24;;;;;;;14.83;4.97;;;;;;;;;;10357804;28;20132;-73
2022/07/23 20:06:24;;;;;;;19.48;5.35;;;;;;;;;;10357531;28;20507;-75
2022/07/23 20:11:25;;;;;;;21.83;6.10;;;;;;;;;;10357619;28;20061;-74
2022/07/23 20:16:27;;;;;;;15.80;5.90;;;;;;;;;;10374981;28;20037;-75
2022/07/23 20:21:27;;;;;;;18.60;5.95;;;;;;;;;;10357336;28;20308;-75
2022/07/23 20:26:27;;;;;;;22.27;8.73;;;;;;;;;;10357817;28;20042;-75
2022/07/23 20:31:27;;;;;;;15.23;5.07;;;;;;;;;;10357135;28;20504;-74
2022/07/23 20:36:28;;;;;;;17.95;6.43;;;;;;;;;;10356629;28;20037;-74
2022/07/23 20:41:28;;;;;;;10.55;5.07;;;;;;;;;;10356397;28;20033;-75
2022/07/23 20:46:28;;;;;;;14.48;5.68;;;;;;;;;;10356471;28;20065;-75
2022/07/23 20:51:30;;;;;;;15.50;5.97;;;;;;;;;;10356121;28;20030;-74
2022/07/23 20:56:30;;;;;;;13.73;6.43;;;;;;;;;;10356124;28;20038;-74
2022/07/23 21:01:30;;;;;;;14.05;5.38;;;;;;;;;;10355814;28;20472;-75
2022/07/23 21:06:31;;;;;;;12.70;5.43;;;;;;;;;;10355017;28;20073;-74
2022/07/23 21:11:31;;;;;;;7.88;5.05;;;;;;;;;;10356153;28;20042;-75
2022/07/23 21:16:31;;;;;;;8.52;5.30;;;;;;;;;;10355631;28;20032;-74
2022/07/23 21:21:31;;;;;;;10.82;5.53;;;;;;;;;;10372798;28;20038;-74
2022/07/23 21:26:32;;;;;;;14.47;5.80;;;;;;;;;;10354902;28;20038;-74
2022/07/23 21:31:32;;;;;;;15.05;5.30;;;;;;;;;;10354800;28;20030;-74
2022/07/23 21:36:33;;;;;;;15.82;6.10;;;;;;;;;;10372272;28;20042;-74
2022/07/23 21:41:33;;;;;;;13.25;5.68;;;;;;;;;;10371750;28;20026;-75
2022/07/23 21:46:34;;;;;;;11.85;5.47;;;;;;;;;;10371909;28;20042;-73
2022/07/23 21:51:34;;;;;;;11.87;5.57;;;;;;;;;;10354159;28;20040;-74
2022/07/23 21:56:34;;;;;;;23.90;6.23;;;;;;;;;;10371693;28;20040;-74
2022/07/23 22:01:35;;;;;;;14.98;5.57;;;;;;;;;;10353653;28;20299;-74
2022/07/23 22:06:35;;;;;;;14.73;5.80;;;;;;;;;;10353596;28;20042;-75
2022/07/23 22:11:35;;;;;;;18.42;5.70;;;;;;;;;;10353428;28;20069;-74
2022/07/23 22:16:36;;;;;;;13.75;6.85;;;;;;;;;;10353132;28;20034;-74
2022/07/23 22:21:36;;;;;;;15.30;6.93;;;;;;;;;;10353058;28;20037;-74
2022/07/23 22:26:36;;;;;;;14.25;6.40;;;;;;;;;;10353099;28;20276;-74
2022/07/23 22:31:36;;;;;;;11.47;5.83;;;;;;;;;;10352943;28;20034;-75
2022/07/23 22:36:37;;;;;;;16.33;5.63;;;;;;;;;;10352876;28;20540;-74
2022/07/23 22:41:37;;;;;;;13.68;6.78;;;;;;;;;;10352827;28;20066;-74
2022/07/23 22:46:37;;;;;;;11.40;5.72;;;;;;;;;;10352774;28;20092;-74
2022/07/23 22:51:37;;;;;;;13.85;6.25;;;;;;;;;;10352580;28;20125;-74
2022/07/23 22:56:38;;;;;;;19.27;6.68;;;;;;;;;;10352353;28;20084;-74
2022/07/23 23:01:38;;;;;;;15.85;6.00;;;;;;;;;;10370398;28;20041;-75
2022/07/23 23:06:38;;;;;;;12.87;5.90;;;;;;;;;;10352956;28;20054;-75
2022/07/23 23:11:39;;;;;;;15.67;6.50;;;;;;;;;;10352305;28;20387;-74
2022/07/23 23:16:39;;;;;;;10.57;6.05;;;;;;;;;;10369772;28;20184;-75
2022/07/23 23:21:39;;;;;;;15.32;5.55;;;;;;;;;;10352161;28;20030;-74
2022/07/23 23:26:39;;;;;;;11.98;5.30;;;;;;;;;;10352874;28;20460;-75
2022/07/23 23:31:40;;;;;;;19.73;6.28;;;;;;;;;;10359523;28;20029;-74
2022/07/23 23:36:41;;;;;;;8.13;5.45;;;;;;;;;;10359351;28;20030;-74
2022/07/23 23:41:42;;;;;;;18.58;7.65;;;;;;;;;;10359074;28;20057;-74
2022/07/23 23:46:42;;;;;;;17.75;6.50;;;;;;;;;;10376622;28;20076;-76
2022/07/23 23:51:42;;;;;;;12.10;6.22;;;;;;;;;;10376263;28;20103;-74
2022/07/23 23:56:43;;;;;;;22.73;7.30;;;;;;;;;;10376142;28;20045;-75
